createdAt,value
2023-03-26T00:00:55.395Z,43.99
2023-03-26T00:03:22.717Z,44.07
2023-03-26T00:05:50.773Z,43.91
2023-03-26T00:08:21.726Z,43.87
2023-03-26T00:10:48.752Z,44.00
2023-03-26T00:13:18.594Z,44.01
2023-03-26T00:15:45.983Z,44.06
2023-03-26T00:18:13.167Z,43.96
2023-03-26T00:20:45.060Z,43.80
2023-03-26T00:23:13.745Z,43.79
2023-03-26T00:25:42.958Z,43.61
2023-03-26T00:28:12.984Z,43.76
2023-03-26T00:30:41.331Z,43.57
2023-03-26T00:33:11.342Z,43.61
2023-03-26T00:35:38.349Z,43.56
2023-03-26T00:38:05.365Z,43.44
2023-03-26T00:40:36.303Z,43.05
2023-03-26T00:43:18.316Z,43.07
2023-03-26T00:45:56.639Z,43.35
2023-03-26T00:48:37.888Z,43.38
2023-03-26T00:51:12.127Z,43.40
2023-03-26T00:53:40.826Z,43.34
2023-03-26T00:56:12.062Z,43.28
2023-03-26T00:58:39.833Z,43.41
2023-03-26T01:01:15.021Z,43.22
2023-03-26T01:03:53.046Z,43.42
2023-03-26T01:06:32.237Z,43.31
2023-03-26T01:09:03.606Z,43.31
2023-03-26T01:11:31.685Z,43.17
2023-03-26T01:14:06.707Z,43.05
2023-03-26T01:16:41.341Z,43.03
2023-03-26T01:19:12.339Z,43.13
2023-03-26T01:21:39.991Z,43.41
2023-03-26T01:24:08.122Z,43.49
2023-03-26T01:26:47.077Z,43.39
2023-03-26T01:29:27.609Z,43.62
2023-03-26T01:32:08.915Z,43.94
2023-03-26T01:35:00.864Z,44.25
2023-03-26T01:38:09.856Z,44.68
2023-03-26T01:40:46.137Z,44.63
2023-03-26T01:43:18.015Z,44.53
2023-03-26T01:45:45.087Z,44.68
2023-03-26T01:48:11.961Z,44.60
2023-03-26T01:50:38.853Z,44.54
2023-03-26T01:53:05.734Z,44.51
2023-03-26T01:55:41.116Z,44.18
2023-03-26T01:58:22.993Z,44.13
2023-03-26T02:00:56.940Z,44.26
2023-03-26T02:03:27.253Z,44.42
2023-03-26T02:06:15.121Z,44.30
2023-03-26T02:08:52.179Z,44.23
2023-03-26T02:11:19.970Z,44.04
2023-03-26T02:13:47.781Z,44.01
2023-03-26T02:16:15.827Z,43.88
2023-03-26T02:18:50.727Z,43.67
2023-03-26T02:21:22.091Z,43.69
2023-03-26T02:23:50.171Z,43.73
2023-03-26T02:26:18.562Z,43.36
2023-03-26T02:28:56.133Z,43.22
2023-03-26T02:31:30.692Z,42.95
2023-03-26T02:33:57.511Z,42.71
2023-03-26T02:36:26.822Z,42.79
2023-03-26T02:38:57.276Z,42.97
2023-03-26T02:41:28.636Z,43.00
2023-03-26T02:43:58.765Z,42.78
2023-03-26T02:46:45.365Z,42.53
2023-03-26T02:49:38.300Z,42.61
2023-03-26T02:52:05.876Z,42.71
2023-03-26T02:54:36.724Z,42.61
2023-03-26T02:57:35.640Z,42.48
2023-03-26T03:00:22.051Z,42.32
2023-03-26T03:03:16.776Z,41.95
2023-03-26T03:06:01.929Z,41.61
2023-03-26T03:08:33.556Z,41.82
2023-03-26T03:11:24.129Z,41.94
2023-03-26T03:13:51.874Z,42.15
2023-03-26T03:16:22.242Z,42.12
2023-03-26T03:18:53.667Z,41.97
2023-03-26T03:21:23.474Z,41.80
2023-03-26T03:23:50.639Z,42.10
2023-03-26T03:26:21.068Z,42.21
2023-03-26T03:28:56.846Z,42.44
2023-03-26T03:31:25.758Z,42.57
2023-03-26T03:33:53.372Z,42.61
2023-03-26T03:36:27.202Z,42.32
2023-03-26T03:39:01.810Z,42.26
2023-03-26T03:41:29.158Z,42.16
2023-03-26T03:43:58.734Z,42.14
2023-03-26T03:46:27.906Z,42.13
2023-03-26T03:48:57.736Z,42.02
2023-03-26T03:51:31.676Z,41.93
2023-03-26T03:54:03.187Z,42.06
2023-03-26T03:56:55.281Z,42.06
2023-03-26T03:59:31.209Z,41.99
2023-03-26T04:01:58.658Z,41.86
2023-03-26T04:04:49.531Z,42.14
2023-03-26T04:07:18.933Z,42.04
2023-03-26T04:10:04.835Z,42.25
2023-03-26T04:12:52.689Z,42.31
2023-03-26T04:15:24.089Z,42.11
2023-03-26T04:17:51.756Z,42.02
2023-03-26T04:21:51.683Z,44.22
2023-03-26T04:24:22.641Z,42.16
2023-03-26T04:27:21.624Z,41.94
2023-03-26T04:29:50.098Z,41.70
2023-03-26T04:32:34.458Z,41.61
2023-03-26T04:35:04.164Z,41.61
2023-03-26T04:37:40.169Z,41.49
2023-03-26T04:40:30.789Z,41.52
2023-03-26T04:43:24.401Z,41.70
2023-03-26T04:46:11.780Z,41.80
2023-03-26T04:48:48.541Z,41.58
2023-03-26T04:51:24.151Z,41.62
2023-03-26T04:54:00.014Z,41.53
2023-03-26T04:56:39.191Z,41.45
2023-03-26T04:59:26.448Z,41.41
2023-03-26T05:01:57.321Z,41.27
2023-03-26T05:04:27.038Z,40.99
2023-03-26T05:06:58.127Z,40.47
2023-03-26T05:09:34.420Z,39.88
2023-03-26T05:12:15.034Z,39.43
2023-03-26T05:15:04.468Z,39.15
2023-03-26T05:17:56.040Z,39.05
2023-03-26T05:20:31.670Z,39.43
2023-03-26T05:23:07.627Z,39.17
2023-03-26T05:25:43.205Z,38.77
2023-03-26T05:28:19.511Z,38.17
2023-03-26T05:31:02.952Z,37.45
2023-03-26T05:33:35.289Z,36.88
2023-03-26T05:36:13.564Z,36.45
2023-03-26T05:38:49.742Z,35.85
2023-03-26T05:41:38.329Z,35.28
2023-03-26T05:44:06.987Z,34.80
2023-03-26T05:46:36.191Z,34.38
2023-03-26T05:49:05.045Z,33.91
2023-03-26T05:51:35.328Z,33.60
2023-03-26T05:54:23.215Z,33.41
2023-03-26T05:57:10.682Z,33.03
2023-03-26T06:00:04.960Z,32.54
2023-03-26T06:02:48.329Z,32.14
2023-03-26T06:05:37.709Z,31.85
2023-03-26T06:08:22.009Z,31.38
2023-03-26T06:10:58.975Z,30.98
2023-03-26T06:13:28.464Z,30.46
2023-03-26T06:15:58.817Z,30.07
2023-03-26T06:18:36.405Z,29.49
2023-03-26T06:21:34.089Z,28.83
2023-03-26T06:24:27.333Z,28.63
2023-03-26T06:27:14.595Z,28.30
2023-03-26T06:30:16.392Z,28.31
2023-03-26T06:33:02.430Z,28.00
2023-03-26T06:35:36.970Z,27.61
2023-03-26T06:38:07.748Z,27.38
2023-03-26T06:40:37.315Z,27.63
2023-03-26T06:43:22.747Z,27.50
2023-03-26T06:46:25.972Z,27.36
2023-03-26T06:49:13.270Z,27.08
2023-03-26T06:52:03.019Z,27.09
2023-03-26T06:54:57.779Z,26.82
2023-03-26T06:57:49.474Z,26.98
2023-03-26T07:00:42.562Z,26.73
2023-03-26T07:03:30.302Z,26.72
2023-03-26T07:06:19.694Z,26.98
2023-03-26T07:09:14.539Z,26.93
2023-03-26T07:12:01.465Z,26.77
2023-03-26T07:15:01.230Z,26.96
2023-03-26T07:17:38.761Z,27.15
2023-03-26T07:20:20.887Z,27.42
2023-03-26T07:22:49.743Z,27.59
2023-03-26T07:25:33.104Z,27.78
2023-03-26T07:28:27.424Z,28.04
2023-03-26T07:31:27.568Z,28.36
2023-03-26T07:34:22.645Z,28.58
2023-03-26T07:37:22.344Z,28.42
2023-03-26T07:40:28.843Z,28.31
2023-03-26T07:43:28.112Z,27.93
2023-03-26T07:46:29.306Z,27.47
2023-03-26T07:49:30.512Z,27.79
2023-03-26T07:52:15.405Z,27.89
2023-03-26T07:54:54.311Z,27.69
2023-03-26T07:57:59.544Z,28.07
2023-03-26T08:00:54.547Z,28.22
2023-03-26T08:03:52.101Z,28.67
2023-03-26T08:06:35.697Z,29.14
2023-03-26T08:09:34.689Z,29.49
2023-03-26T08:12:35.083Z,29.86
2023-03-26T08:15:06.548Z,29.95
2023-03-26T08:18:14.346Z,29.98
2023-03-26T08:20:55.229Z,30.02
2023-03-26T08:23:36.195Z,30.36
2023-03-26T08:26:28.119Z,30.49
2023-03-26T08:29:16.193Z,30.50
2023-03-26T08:31:45.568Z,30.77
2023-03-26T08:34:13.956Z,30.86
2023-03-26T08:36:43.104Z,31.31
2023-03-26T08:39:11.905Z,31.57
2023-03-26T08:41:55.370Z,31.93
2023-03-26T08:44:36.656Z,31.76
2023-03-26T08:47:55.888Z,31.45
2023-03-26T08:50:43.160Z,31.38
2023-03-26T08:53:39.280Z,31.31
2023-03-26T08:56:32.880Z,31.21
2023-03-26T08:59:39.518Z,31.39
2023-03-26T09:02:28.309Z,31.74
2023-03-26T09:05:21.641Z,31.77
2023-03-26T09:08:17.902Z,31.53
2023-03-26T09:11:06.658Z,31.45
2023-03-26T09:13:52.540Z,31.18
2023-03-26T09:16:33.153Z,31.40
2023-03-26T09:19:10.704Z,31.43
2023-03-26T09:22:00.682Z,31.57
2023-03-26T09:24:41.256Z,31.69
2023-03-26T09:27:15.912Z,31.76
2023-03-26T09:29:54.616Z,32.15
2023-03-26T09:33:00.626Z,32.05
2023-03-26T09:35:52.893Z,32.24
2023-03-26T09:38:33.892Z,32.44
2023-03-26T09:41:08.647Z,32.50
2023-03-26T09:43:43.777Z,32.71
2023-03-26T09:46:34.772Z,33.02
2023-03-26T09:49:09.602Z,32.85
2023-03-26T09:52:08.611Z,33.02
2023-03-26T09:54:44.824Z,33.09
2023-03-26T09:57:58.475Z,33.31
2023-03-26T10:00:49.947Z,33.63
2023-03-26T10:03:26.390Z,33.87
2023-03-26T10:06:12.192Z,33.79
2023-03-26T10:08:49.926Z,33.67
2023-03-26T10:19:00.506Z,33.56
2023-03-26T10:22:13.116Z,33.65
2023-03-26T10:25:01.528Z,33.68
2023-03-26T10:28:09.166Z,33.82
2023-03-26T10:31:16.589Z,33.85
2023-03-26T10:34:03.401Z,33.70
2023-03-26T10:36:41.476Z,33.67
2023-03-26T10:39:54.706Z,33.55
2023-03-26T10:42:22.852Z,33.23
2023-03-26T10:45:02.628Z,33.19
2023-03-26T10:47:54.435Z,33.00
2023-03-26T10:50:28.198Z,32.85
2023-03-26T10:53:12.942Z,32.83
2023-03-26T10:55:45.778Z,32.66
2023-03-26T10:58:29.677Z,32.50
2023-03-26T11:01:48.593Z,32.59
2023-03-26T11:04:35.954Z,32.48
2023-03-26T11:07:10.944Z,32.24
2023-03-26T11:09:48.245Z,32.13
2023-03-26T11:12:27.177Z,32.13
2023-03-26T11:15:16.092Z,32.23
2023-03-26T11:18:27.622Z,32.11
2023-03-26T11:21:30.861Z,31.82
2023-03-26T11:24:18.825Z,31.64
2023-03-26T11:26:55.991Z,31.67
2023-03-26T11:29:39.987Z,31.47
2023-03-26T11:32:23.297Z,31.22
2023-03-26T11:35:40.701Z,31.23
2023-03-26T11:38:24.030Z,31.06
2023-03-26T11:40:57.220Z,31.15
2023-03-26T11:43:49.723Z,31.02
2023-03-26T11:46:21.108Z,30.95
2023-03-26T11:48:59.432Z,30.70
2023-03-26T11:51:31.678Z,30.67
2023-03-26T11:54:01.532Z,30.41
2023-03-26T11:57:05.497Z,30.15
2023-03-26T11:59:55.494Z,29.86
2023-03-26T12:02:38.419Z,29.91
2023-03-26T12:05:21.342Z,29.75
2023-03-26T12:08:00.535Z,30.67
2023-03-26T12:10:38.144Z,31.50
2023-03-26T12:13:21.832Z,32.00
2023-03-26T12:15:51.135Z,31.61
2023-03-26T12:18:26.369Z,30.93
2023-03-26T12:21:18.211Z,31.94
2023-03-26T12:24:01.975Z,32.97
2023-03-26T12:26:40.792Z,33.43
2023-03-26T12:29:19.410Z,33.25
2023-03-26T12:32:09.398Z,33.45
2023-03-26T12:34:39.716Z,33.94
2023-03-26T12:37:16.406Z,33.48
2023-03-26T12:40:08.660Z,33.22
2023-03-26T12:44:51.110Z,32.96
2023-03-26T12:45:37.404Z,32.53
2023-03-26T12:48:07.262Z,32.21
2023-03-26T12:50:51.590Z,31.78
2023-03-26T12:53:29.236Z,32.37
2023-03-26T12:56:21.941Z,32.53
2023-03-26T12:59:05.578Z,31.86
2023-03-26T13:01:59.420Z,32.13
2023-03-26T13:05:05.741Z,31.71
2023-03-26T13:08:00.729Z,31.70
2023-03-26T13:10:43.655Z,32.23
2023-03-26T13:13:52.815Z,32.09
2023-03-26T13:16:45.399Z,32.10
2023-03-26T13:19:29.244Z,31.47
2023-03-26T13:22:30.244Z,31.40
2023-03-26T13:25:23.161Z,31.29
2023-03-26T13:28:21.178Z,31.19
2023-03-26T13:31:12.009Z,31.00
2023-03-26T13:34:05.470Z,30.84
2023-03-26T13:36:51.261Z,30.60
2023-03-26T13:39:25.341Z,30.49
2023-03-26T13:42:26.854Z,30.17
2023-03-26T13:45:07.779Z,30.34
2023-03-26T13:47:38.625Z,30.19
2023-03-26T13:50:10.063Z,30.25
2023-03-26T13:52:53.174Z,30.26
2023-03-26T13:55:34.311Z,30.02
2023-03-26T13:58:13.823Z,30.09
2023-03-26T14:00:59.226Z,30.24
2023-03-26T14:03:35.872Z,30.29
2023-03-26T14:06:24.554Z,30.47
2023-03-26T14:09:05.014Z,31.06
2023-03-26T14:12:02.046Z,31.68
2023-03-26T14:14:48.925Z,32.80
2023-03-26T14:17:38.727Z,33.52
2023-03-26T14:20:28.935Z,34.45
2023-03-26T14:23:12.564Z,34.87
2023-03-26T14:25:47.394Z,35.02
2023-03-26T14:28:21.865Z,35.01
2023-03-26T14:31:04.255Z,35.29
2023-03-26T14:33:38.803Z,35.29
2023-03-26T14:36:14.811Z,35.44
2023-03-26T14:39:06.581Z,35.17
2023-03-26T14:41:59.398Z,34.43
2023-03-26T14:44:49.108Z,34.61
2023-03-26T14:47:19.200Z,34.52
2023-03-26T14:50:03.653Z,34.08
2023-03-26T14:52:51.968Z,34.26
2023-03-26T14:55:35.587Z,34.18
2023-03-26T14:58:30.603Z,34.23
2023-03-26T15:01:19.022Z,33.73
2023-03-26T15:04:06.545Z,33.73
2023-03-26T15:06:47.352Z,33.45
2023-03-26T15:09:46.494Z,34.03
2023-03-26T15:12:50.149Z,33.08
2023-03-26T15:15:37.334Z,33.51
2023-03-26T15:18:41.548Z,33.69
2023-03-26T15:21:45.559Z,33.60
2023-03-26T15:24:51.417Z,33.65
2023-03-26T15:27:43.457Z,33.38
2023-03-26T15:30:33.357Z,33.33
2023-03-26T15:33:09.101Z,33.57
2023-03-26T15:35:38.108Z,33.37
2023-03-26T15:38:28.457Z,33.26
2023-03-26T15:41:11.912Z,33.56
2023-03-26T15:44:24.231Z,33.84
2023-03-26T15:47:44.851Z,33.71
2023-03-26T15:50:29.800Z,33.46
2023-03-26T15:53:13.028Z,33.35
2023-03-26T15:56:07.630Z,33.38
2023-03-26T15:58:59.778Z,33.49
2023-03-26T16:02:03.993Z,32.95
2023-03-26T16:04:50.043Z,33.06
2023-03-26T16:07:54.305Z,33.21
2023-03-26T16:10:46.761Z,33.09
2023-03-26T16:13:50.827Z,32.88
2023-03-26T16:16:24.176Z,33.05
2023-03-26T16:19:19.297Z,32.71
2023-03-26T16:22:01.167Z,32.80
2023-03-26T16:24:32.829Z,32.83
2023-03-26T16:27:15.654Z,32.85
2023-03-26T16:30:11.316Z,32.77
2023-03-26T16:33:01.930Z,32.73
2023-03-26T16:35:39.880Z,32.73
2023-03-26T16:39:45.628Z,34.91
2023-03-26T16:42:49.762Z,33.15
2023-03-26T16:45:37.372Z,33.00
2023-03-26T16:48:05.695Z,33.06
2023-03-26T16:50:44.725Z,33.15
2023-03-26T16:53:24.550Z,33.31
2023-03-26T16:56:22.596Z,33.55
2023-03-26T16:59:01.918Z,33.82
2023-03-26T17:01:47.045Z,34.13
2023-03-26T17:04:20.669Z,34.31
2023-03-26T17:07:08.871Z,34.34
2023-03-26T17:09:44.926Z,34.24
2023-03-26T17:12:35.230Z,33.87
2023-03-26T17:15:20.424Z,33.90
2023-03-26T17:18:16.230Z,33.60
2023-03-26T17:21:29.820Z,34.33
2023-03-26T17:24:43.608Z,34.56
2023-03-26T17:27:34.239Z,34.45
2023-03-26T17:30:28.902Z,34.65
2023-03-26T17:33:06.081Z,34.68
2023-03-26T17:35:36.248Z,34.93
2023-03-26T17:38:16.947Z,34.96
2023-03-26T17:40:45.434Z,35.12
2023-03-26T17:43:34.384Z,35.25
2023-03-26T17:46:04.715Z,35.47
2023-03-26T17:48:35.657Z,35.39
2023-03-26T17:51:30.377Z,35.35
2023-03-26T17:53:59.493Z,35.42
2023-03-26T17:56:29.345Z,35.42
2023-03-26T17:59:11.495Z,35.40
2023-03-26T18:01:42.379Z,35.42
2023-03-26T18:04:19.949Z,35.50
2023-03-26T18:06:55.605Z,35.51
2023-03-26T18:09:37.287Z,35.47
2023-03-26T18:12:24.819Z,35.52
2023-03-26T18:15:32.116Z,35.58
2023-03-26T18:18:18.326Z,35.53
2023-03-26T18:20:50.180Z,35.58
2023-03-26T18:23:27.173Z,35.47
2023-03-26T18:25:58.576Z,35.46
2023-03-26T18:28:35.894Z,35.47
2023-03-26T18:31:19.062Z,35.36
2023-03-26T18:33:49.555Z,35.44
2023-03-26T18:36:18.984Z,35.42
2023-03-26T18:38:49.307Z,35.96
2023-03-26T18:41:27.549Z,36.07
2023-03-26T18:43:55.767Z,35.87
2023-03-26T18:46:25.018Z,35.48
2023-03-26T18:48:55.914Z,35.33
2023-03-26T18:51:25.378Z,36.64
2023-03-26T18:54:03.488Z,36.25
2023-03-26T18:56:35.458Z,35.74
2023-03-26T18:59:28.370Z,35.88
2023-03-26T19:01:57.951Z,35.43
2023-03-26T19:04:26.773Z,35.42
2023-03-26T19:06:55.468Z,35.08
2023-03-26T19:09:31.724Z,34.72
2023-03-26T19:12:06.231Z,34.24
2023-03-26T19:14:56.141Z,34.02
2023-03-26T19:17:27.162Z,33.74
2023-03-26T19:19:55.855Z,33.21
2023-03-26T19:22:25.972Z,33.27
2023-03-26T19:24:57.945Z,33.30
2023-03-26T19:27:26.609Z,33.35
2023-03-26T19:29:58.062Z,33.74
2023-03-26T19:32:34.663Z,33.51
2023-03-26T19:35:04.707Z,33.72
2023-03-26T19:37:33.870Z,33.12
2023-03-26T19:40:07.361Z,32.32
2023-03-26T19:42:43.784Z,32.06
2023-03-26T19:45:19.149Z,31.90
2023-03-26T19:48:00.100Z,32.00
2023-03-26T19:50:37.451Z,32.18
2023-03-26T19:53:19.159Z,32.41
2023-03-26T19:55:58.029Z,32.47
2023-03-26T19:58:26.714Z,32.59
2023-03-26T20:00:56.708Z,32.82
2023-03-26T20:03:40.615Z,32.78
2023-03-26T20:06:13.068Z,33.03
2023-03-26T20:08:47.462Z,33.22
2023-03-26T20:11:19.912Z,33.32
2023-03-26T20:13:54.097Z,33.45
2023-03-26T20:16:31.819Z,33.57
2023-03-26T20:19:04.742Z,33.70
2023-03-26T20:21:41.535Z,33.74
2023-03-26T20:24:17.017Z,33.81
2023-03-26T20:26:45.932Z,33.96
2023-03-26T20:29:14.948Z,34.13
2023-03-26T20:31:43.342Z,34.22
2023-03-26T20:34:19.875Z,34.23
2023-03-26T20:36:55.624Z,34.32
2023-03-26T20:39:25.470Z,34.49
2023-03-26T20:41:55.357Z,34.62
2023-03-26T20:44:23.727Z,34.60
2023-03-26T20:46:52.643Z,34.70
2023-03-26T20:49:22.354Z,34.74
2023-03-26T20:51:51.257Z,34.92
2023-03-26T20:54:21.912Z,35.02
2023-03-26T20:56:51.398Z,35.03
2023-03-26T20:59:29.142Z,35.06
2023-03-26T21:01:58.090Z,35.04
2023-03-26T21:04:26.718Z,35.12
2023-03-26T21:06:57.878Z,35.05
2023-03-26T21:09:35.734Z,35.30
2023-03-26T21:12:16.914Z,35.20
2023-03-26T21:14:55.809Z,35.33
2023-03-26T21:17:25.260Z,35.34
2023-03-26T21:19:54.080Z,35.40
2023-03-26T21:22:53.788Z,35.48
2023-03-26T21:25:32.316Z,35.67
2023-03-26T21:28:09.113Z,35.83
2023-03-26T21:30:40.101Z,35.84
2023-03-26T21:33:09.032Z,36.03
2023-03-26T21:35:40.843Z,36.07
2023-03-26T21:38:10.072Z,36.15
2023-03-26T21:40:42.285Z,36.33
2023-03-26T21:43:13.490Z,36.30
2023-03-26T21:45:43.196Z,36.12
2023-03-26T21:48:12.122Z,36.19
2023-03-26T21:50:41.014Z,36.16
2023-03-26T21:53:12.920Z,36.20
2023-03-26T21:55:58.968Z,36.26
2023-03-26T21:58:58.759Z,36.17
2023-03-26T22:01:31.802Z,36.07
2023-03-26T22:04:07.819Z,36.23
2023-03-26T22:07:01.338Z,36.26
2023-03-26T22:09:36.511Z,36.32
2023-03-26T22:12:05.930Z,36.35
2023-03-26T22:14:36.224Z,36.40
2023-03-26T22:17:05.057Z,36.31
2023-03-26T22:19:41.637Z,36.29
2023-03-26T22:22:10.922Z,36.32
2023-03-26T22:24:39.530Z,36.33
2023-03-26T22:27:08.588Z,36.27
2023-03-26T22:29:39.435Z,36.19
2023-03-26T22:32:08.235Z,36.13
2023-03-26T22:34:38.046Z,36.11
2023-03-26T22:37:06.550Z,36.20
2023-03-26T22:39:35.116Z,36.18
2023-03-26T22:42:05.235Z,36.10
2023-03-26T22:44:33.509Z,36.09
2023-03-26T22:47:01.804Z,36.17
2023-03-26T22:49:31.709Z,36.16
2023-03-26T22:52:07.346Z,36.19
2023-03-26T22:54:37.304Z,36.23
2023-03-26T22:57:05.624Z,36.38
2023-03-26T22:59:35.082Z,36.31
2023-03-26T23:02:03.346Z,36.23
2023-03-26T23:04:32.500Z,36.42
2023-03-26T23:07:01.064Z,36.47
2023-03-26T23:09:29.811Z,36.53
2023-03-26T23:12:00.759Z,36.59
2023-03-26T23:14:29.030Z,36.63
2023-03-26T23:16:57.474Z,36.64
2023-03-26T23:19:34.334Z,36.63
2023-03-26T23:22:02.974Z,36.64
2023-03-26T23:24:31.782Z,36.71
2023-03-26T23:27:01.170Z,36.76
2023-03-26T23:29:30.365Z,36.74
2023-03-26T23:32:00.588Z,36.83
2023-03-26T23:34:29.180Z,36.82
2023-03-26T23:36:58.250Z,36.83
2023-03-26T23:39:28.926Z,36.78
2023-03-26T23:41:57.291Z,36.90
2023-03-26T23:44:29.699Z,36.81
2023-03-26T23:47:00.707Z,36.83
2023-03-26T23:49:29.004Z,36.94
2023-03-26T23:51:57.377Z,36.88
2023-03-26T23:54:25.746Z,36.96
2023-03-26T23:56:57.914Z,36.99
2023-03-26T23:59:26.590Z,36.94
